Aviation Digital Data Service (ADDS)

Output produced by METARs form (1420 UTC 22 April 2019)
found at http://www.aviationweather.gov/metar/data/
 
METAR text: OIMM 221400Z 07014KT 9999 BKN025 FEW035CB 11/07 Q1013 A2994
Conditions at: OIMM (MASHHAD (AFB/CIV, IR) observed 1400 UTC 22 April 2019
Temperature: 11.0°C (52°F)
Dewpoint: 7.0°C (45°F) [RH = 76%]
Pressure (altimeter): 29.91 inches Hg (1013.0 mb)
Winds: from the ENE (70 degrees) at 16 MPH (14 knots; 7.2 m/s)
Visibility: 6 or more miles (10+ km)
Ceiling: 2500 feet AGL
Clouds: broken clouds at 2500 feet AGL
few clouds at 3500 feet AGL
Weather: no significant weather observed at this time

METAR text: OIMM 221330Z 08012KT 9999 BKN025 FEW035CB 12/07 Q1014 A2995
Conditions at: OIMM (MASHHAD (AFB/CIV, IR) observed 1330 UTC 22 April 2019
Temperature: 12.0°C (54°F)
Dewpoint: 7.0°C (45°F) [RH = 71%]
Pressure (altimeter): 29.94 inches Hg (1014.0 mb)
Winds: from the E (80 degrees) at 14 MPH (12 knots; 6.2 m/s)
Visibility: 6 or more miles (10+ km)
Ceiling: 2500 feet AGL
Clouds: broken clouds at 2500 feet AGL
few clouds at 3500 feet AGL
Weather: no significant weather observed at this time

METAR text: OIMM 221300Z 06008KT 9999 BKN025 FEW035CB 12/07 Q1014 A2995
Conditions at: OIMM (MASHHAD (AFB/CIV, IR) observed 1300 UTC 22 April 2019
Temperature: 12.0°C (54°F)
Dewpoint: 7.0°C (45°F) [RH = 71%]
Pressure (altimeter): 29.94 inches Hg (1014.0 mb)
Winds: from the ENE (60 degrees) at 9 MPH (8 knots; 4.1 m/s)
Visibility: 6 or more miles (10+ km)
Ceiling: 2500 feet AGL
Clouds: broken clouds at 2500 feet AGL
few clouds at 3500 feet AGL
Weather: no significant weather observed at this time

METAR text: OIMM 221230Z 08010KT 9999 BKN025 FEW035CB 12/07 Q1014 A2996
Conditions at: OIMM (MASHHAD (AFB/CIV, IR) observed 1230 UTC 22 April 2019
Temperature: 12.0°C (54°F)
Dewpoint: 7.0°C (45°F) [RH = 71%]
Pressure (altimeter): 29.94 inches Hg (1014.0 mb)
Winds: from the E (80 degrees) at 12 MPH (10 knots; 5.1 m/s)
Visibility: 6 or more miles (10+ km)
Ceiling: 2500 feet AGL
Clouds: broken clouds at 2500 feet AGL
few clouds at 3500 feet AGL
Weather: no significant weather observed at this time

METAR text: OIMM 221200Z 09008KT 9999 BKN025 FEW035CB 12/07 Q1014 A2996
Conditions at: OIMM (MASHHAD (AFB/CIV, IR) observed 1200 UTC 22 April 2019
Temperature: 12.0°C (54°F)
Dewpoint: 7.0°C (45°F) [RH = 71%]
Pressure (altimeter): 29.94 inches Hg (1014.0 mb)
Winds: from the E (90 degrees) at 9 MPH (8 knots; 4.1 m/s)
Visibility: 6 or more miles (10+ km)
Ceiling: 2500 feet AGL
Clouds: broken clouds at 2500 feet AGL
few clouds at 3500 feet AGL
Weather: no significant weather observed at this time

METAR text: OIMM 221130Z 11012KT 9999 BKN025 FEW035CB 12/06 Q1015 A2997
Conditions at: OIMM (MASHHAD (AFB/CIV, IR) observed 1130 UTC 22 April 2019
Temperature: 12.0°C (54°F)
Dewpoint: 6.0°C (43°F) [RH = 67%]
Pressure (altimeter): 29.97 inches Hg (1015.0 mb)
Winds: from the ESE (110 degrees) at 14 MPH (12 knots; 6.2 m/s)
Visibility: 6 or more miles (10+ km)
Ceiling: 2500 feet AGL
Clouds: broken clouds at 2500 feet AGL
few clouds at 3500 feet AGL
Weather: no significant weather observed at this time

METAR text: OIMM 221100Z 07008KT 9999 BKN025 FEW035CB 12/06 Q1015 A2997
Conditions at: OIMM (MASHHAD (AFB/CIV, IR) observed 1100 UTC 22 April 2019
Temperature: 12.0°C (54°F)
Dewpoint: 6.0°C (43°F) [RH = 67%]
Pressure (altimeter): 29.97 inches Hg (1015.0 mb)
Winds: from the ENE (70 degrees) at 9 MPH (8 knots; 4.1 m/s)
Visibility: 6 or more miles (10+ km)
Ceiling: 2500 feet AGL
Clouds: broken clouds at 2500 feet AGL
few clouds at 3500 feet AGL
Weather: no significant weather observed at this time

METAR text: OIMM 221030Z 09010KT 8000 BKN016 FEW035CB 10/08 Q1016 A3001
Conditions at: OIMM (MASHHAD (AFB/CIV, IR) observed 1030 UTC 22 April 2019
Temperature: 10.0°C (50°F)
Dewpoint: 8.0°C (46°F) [RH = 87%]
Pressure (altimeter): 30.00 inches Hg (1016.0 mb)
Winds: from the E (90 degrees) at 12 MPH (10 knots; 5.1 m/s)
Visibility: 5 miles ( 8 km)
Ceiling: 1600 feet AGL
Clouds: broken clouds at 1600 feet AGL
few clouds at 3500 feet AGL
Weather: no significant weather observed at this time

METAR text: OIMM 221000Z 06012KT 8000 BKN016 FEW035CB 10/08 Q1016 A3001
Conditions at: OIMM (MASHHAD (AFB/CIV, IR) observed 1000 UTC 22 April 2019
Temperature: 10.0°C (50°F)
Dewpoint: 8.0°C (46°F) [RH = 87%]
Pressure (altimeter): 30.00 inches Hg (1016.0 mb)
Winds: from the ENE (60 degrees) at 14 MPH (12 knots; 6.2 m/s)
Visibility: 5 miles ( 8 km)
Ceiling: 1600 feet AGL
Clouds: broken clouds at 1600 feet AGL
few clouds at 3500 feet AGL
Weather: no significant weather observed at this time

METAR text: OIMM 220930Z 08010KT 7000 -SHRA BKN016 FEW035CB 10/07 Q1016 A3001
Conditions at: OIMM (MASHHAD (AFB/CIV, IR) observed 0930 UTC 22 April 2019
Temperature: 10.0°C (50°F)
Dewpoint: 7.0°C (45°F) [RH = 82%]
Pressure (altimeter): 30.00 inches Hg (1016.0 mb)
Winds: from the E (80 degrees) at 12 MPH (10 knots; 5.1 m/s)
Visibility: 4 miles ( 7 km)
Ceiling: 1600 feet AGL
Clouds: broken clouds at 1600 feet AGL
few clouds at 3500 feet AGL
Weather: -SHRA  (light rain showers)

METAR text: OIMM 220920Z 08010KT 7000 -SHRA BKN016 FEW035CB 10/07 Q1016 A3001
Conditions at: OIMM (MASHHAD (AFB/CIV, IR) observed 0920 UTC 22 April 2019
Temperature: 10.0°C (50°F)
Dewpoint: 7.0°C (45°F) [RH = 82%]
Pressure (altimeter): 30.00 inches Hg (1016.0 mb)
Winds: from the E (80 degrees) at 12 MPH (10 knots; 5.1 m/s)
Visibility: 4 miles ( 7 km)
Ceiling: 1600 feet AGL
Clouds: broken clouds at 1600 feet AGL
few clouds at 3500 feet AGL
Weather: -SHRA  (light rain showers)

METAR text: OIMM 220900Z 05014KT 8000 OVC016 10/07 Q1016 A3003
Conditions at: OIMM (MASHHAD (AFB/CIV, IR) observed 0900 UTC 22 April 2019
Temperature: 10.0°C (50°F)
Dewpoint: 7.0°C (45°F) [RH = 82%]
Pressure (altimeter): 30.00 inches Hg (1016.0 mb)
Winds: from the NE (50 degrees) at 16 MPH (14 knots; 7.2 m/s)
Visibility: 5 miles ( 8 km)
Ceiling: 1600 feet AGL
Clouds: overcast cloud deck at 1600 feet AGL
Weather: no significant weather observed at this time

METAR text: OIMM 220850Z 05014KT 8000 OVC016 10/07 Q1016 A3003
Conditions at: OIMM (MASHHAD (AFB/CIV, IR) observed 0850 UTC 22 April 2019
Temperature: 10.0°C (50°F)
Dewpoint: 7.0°C (45°F) [RH = 82%]
Pressure (altimeter): 30.00 inches Hg (1016.0 mb)
Winds: from the NE (50 degrees) at 16 MPH (14 knots; 7.2 m/s)
Visibility: 5 miles ( 8 km)
Ceiling: 1600 feet AGL
Clouds: overcast cloud deck at 1600 feet AGL
Weather: no significant weather observed at this time

METAR text: OIMM 220830Z 06010KT 8000 OVC016 10/06 Q1016 A3002
Conditions at: OIMM (MASHHAD (AFB/CIV, IR) observed 0830 UTC 22 April 2019
Temperature: 10.0°C (50°F)
Dewpoint: 6.0°C (43°F) [RH = 76%]
Pressure (altimeter): 30.00 inches Hg (1016.0 mb)
Winds: from the ENE (60 degrees) at 12 MPH (10 knots; 5.1 m/s)
Visibility: 5 miles ( 8 km)
Ceiling: 1600 feet AGL
Clouds: overcast cloud deck at 1600 feet AGL
Weather: no significant weather observed at this time

METAR text: OIMM 220820Z 06010KT 8000 OVC016 10/06 Q1016 A3002
Conditions at: OIMM (MASHHAD (AFB/CIV, IR) observed 0820 UTC 22 April 2019
Temperature: 10.0°C (50°F)
Dewpoint: 6.0°C (43°F) [RH = 76%]
Pressure (altimeter): 30.00 inches Hg (1016.0 mb)
Winds: from the ENE (60 degrees) at 12 MPH (10 knots; 5.1 m/s)
Visibility: 5 miles ( 8 km)
Ceiling: 1600 feet AGL
Clouds: overcast cloud deck at 1600 feet AGL
Weather: no significant weather observed at this time

METAR text: OIMM 220800Z 07016KT 8000 OVC016 10/07 Q1016 A3002
Conditions at: OIMM (MASHHAD (AFB/CIV, IR) observed 0800 UTC 22 April 2019
Temperature: 10.0°C (50°F)
Dewpoint: 7.0°C (45°F) [RH = 82%]
Pressure (altimeter): 30.00 inches Hg (1016.0 mb)
Winds: from the ENE (70 degrees) at 18 MPH (16 knots; 8.2 m/s)
Visibility: 5 miles ( 8 km)
Ceiling: 1600 feet AGL
Clouds: overcast cloud deck at 1600 feet AGL
Weather: no significant weather observed at this time

METAR text: OIMM 220750Z 07016KT 8000 OVC016 10/07 Q1016 A3002
Conditions at: OIMM (MASHHAD (AFB/CIV, IR) observed 0750 UTC 22 April 2019
Temperature: 10.0°C (50°F)
Dewpoint: 7.0°C (45°F) [RH = 82%]
Pressure (altimeter): 30.00 inches Hg (1016.0 mb)
Winds: from the ENE (70 degrees) at 18 MPH (16 knots; 8.2 m/s)
Visibility: 5 miles ( 8 km)
Ceiling: 1600 feet AGL
Clouds: overcast cloud deck at 1600 feet AGL
Weather: no significant weather observed at this time

METAR text: OIMM 220730Z 07014KT 8000 OVC015 10/07 Q1016 A3003
Conditions at: OIMM (MASHHAD (AFB/CIV, IR) observed 0730 UTC 22 April 2019
Temperature: 10.0°C (50°F)
Dewpoint: 7.0°C (45°F) [RH = 82%]
Pressure (altimeter): 30.00 inches Hg (1016.0 mb)
Winds: from the ENE (70 degrees) at 16 MPH (14 knots; 7.2 m/s)
Visibility: 5 miles ( 8 km)
Ceiling: 1500 feet AGL
Clouds: overcast cloud deck at 1500 feet AGL
Weather: no significant weather observed at this time

METAR text: OIMM 220720Z 07014KT 8000 OVC015 10/07 Q1016 A3003
Conditions at: OIMM (MASHHAD (AFB/CIV, IR) observed 0720 UTC 22 April 2019
Temperature: 10.0°C (50°F)
Dewpoint: 7.0°C (45°F) [RH = 82%]
Pressure (altimeter): 30.00 inches Hg (1016.0 mb)
Winds: from the ENE (70 degrees) at 16 MPH (14 knots; 7.2 m/s)
Visibility: 5 miles ( 8 km)
Ceiling: 1500 feet AGL
Clouds: overcast cloud deck at 1500 feet AGL
Weather: no significant weather observed at this time

METAR text: OIMM 220700Z 08018KT 7000 OVC015 10/07 Q1017 A3003
Conditions at: OIMM (MASHHAD (AFB/CIV, IR) observed 0700 UTC 22 April 2019
Temperature: 10.0°C (50°F)
Dewpoint: 7.0°C (45°F) [RH = 82%]
Pressure (altimeter): 30.03 inches Hg (1017.0 mb)
Winds: from the E (80 degrees) at 21 MPH (18 knots; 9.3 m/s)
Visibility: 4 miles ( 7 km)
Ceiling: 1500 feet AGL
Clouds: overcast cloud deck at 1500 feet AGL
Weather: no significant weather observed at this time

METAR text: OIMM 220650Z 08018KT 7000 OVC015 10/07 Q1017 A3003
Conditions at: OIMM (MASHHAD (AFB/CIV, IR) observed 0650 UTC 22 April 2019
Temperature: 10.0°C (50°F)
Dewpoint: 7.0°C (45°F) [RH = 82%]
Pressure (altimeter): 30.03 inches Hg (1017.0 mb)
Winds: from the E (80 degrees) at 21 MPH (18 knots; 9.3 m/s)
Visibility: 4 miles ( 7 km)
Ceiling: 1500 feet AGL
Clouds: overcast cloud deck at 1500 feet AGL
Weather: no significant weather observed at this time

METAR text: OIMM 220630Z 07014KT 5000 BR OVC015 10/07 Q1017 A3004
Conditions at: OIMM (MASHHAD (AFB/CIV, IR) observed 0630 UTC 22 April 2019
Temperature: 10.0°C (50°F)
Dewpoint: 7.0°C (45°F) [RH = 82%]
Pressure (altimeter): 30.03 inches Hg (1017.0 mb)
Winds: from the ENE (70 degrees) at 16 MPH (14 knots; 7.2 m/s)
Visibility: 3 miles ( 5 km)
Ceiling: 1500 feet AGL
Clouds: overcast cloud deck at 1500 feet AGL
Weather: BR  (mist)

METAR text: OIMM 220620Z 07014KT 5000 BR OVC015 10/07 Q1017 A3004
Conditions at: OIMM (MASHHAD (AFB/CIV, IR) observed 0620 UTC 22 April 2019
Temperature: 10.0°C (50°F)
Dewpoint: 7.0°C (45°F) [RH = 82%]
Pressure (altimeter): 30.03 inches Hg (1017.0 mb)
Winds: from the ENE (70 degrees) at 16 MPH (14 knots; 7.2 m/s)
Visibility: 3 miles ( 5 km)
Ceiling: 1500 feet AGL
Clouds: overcast cloud deck at 1500 feet AGL
Weather: BR  (mist)

METAR text: OIMM 220600Z 07012KT 4000 -DZ BR OVC015 09/07 Q1017 A3005
Conditions at: OIMM (MASHHAD (AFB/CIV, IR) observed 0600 UTC 22 April 2019
Temperature: 9.0°C (48°F)
Dewpoint: 7.0°C (45°F) [RH = 87%]
Pressure (altimeter): 30.03 inches Hg (1017.0 mb)
Winds: from the ENE (70 degrees) at 14 MPH (12 knots; 6.2 m/s)
Visibility: 2.49 miles (4.01 km)
Ceiling: 1500 feet AGL
Clouds: overcast cloud deck at 1500 feet AGL
Weather: -DZ BR  (light drizzle, mist)

METAR text: OIMM 220550Z 07012KT 4000 -DZ BR OVC015 09/07 Q1017 A3005
Conditions at: OIMM (MASHHAD (AFB/CIV, IR) observed 0550 UTC 22 April 2019
Temperature: 9.0°C (48°F)
Dewpoint: 7.0°C (45°F) [RH = 87%]
Pressure (altimeter): 30.03 inches Hg (1017.0 mb)
Winds: from the ENE (70 degrees) at 14 MPH (12 knots; 6.2 m/s)
Visibility: 2.49 miles (4.01 km)
Ceiling: 1500 feet AGL
Clouds: overcast cloud deck at 1500 feet AGL
Weather: -DZ BR  (light drizzle, mist)

METAR text: OIMM 220530Z 11010KT 4000 -DZ BR OVC015 09/07 Q1017 A3004
Conditions at: OIMM (MASHHAD (AFB/CIV, IR) observed 0530 UTC 22 April 2019
Temperature: 9.0°C (48°F)
Dewpoint: 7.0°C (45°F) [RH = 87%]
Pressure (altimeter): 30.03 inches Hg (1017.0 mb)
Winds: from the ESE (110 degrees) at 12 MPH (10 knots; 5.1 m/s)
Visibility: 2.49 miles (4.01 km)
Ceiling: 1500 feet AGL
Clouds: overcast cloud deck at 1500 feet AGL
Weather: -DZ BR  (light drizzle, mist)

METAR text: OIMM 220520Z 11010KT 4000 -DZ BR OVC015 09/07 Q1017 A3004
Conditions at: OIMM (MASHHAD (AFB/CIV, IR) observed 0520 UTC 22 April 2019
Temperature: 9.0°C (48°F)
Dewpoint: 7.0°C (45°F) [RH = 87%]
Pressure (altimeter): 30.03 inches Hg (1017.0 mb)
Winds: from the ESE (110 degrees) at 12 MPH (10 knots; 5.1 m/s)
Visibility: 2.49 miles (4.01 km)
Ceiling: 1500 feet AGL
Clouds: overcast cloud deck at 1500 feet AGL
Weather: -DZ BR  (light drizzle, mist)

METAR text: OIMM 220500Z 11006KT 5000 BR OVC015 09/07 Q1017 A3004
Conditions at: OIMM (MASHHAD (AFB/CIV, IR) observed 0500 UTC 22 April 2019
Temperature: 9.0°C (48°F)
Dewpoint: 7.0°C (45°F) [RH = 87%]
Pressure (altimeter): 30.03 inches Hg (1017.0 mb)
Winds: from the ESE (110 degrees) at 7 MPH (6 knots; 3.1 m/s)
Visibility: 3 miles ( 5 km)
Ceiling: 1500 feet AGL
Clouds: overcast cloud deck at 1500 feet AGL
Weather: BR  (mist)

METAR text: OIMM 220450Z 11006KT 5000 BR OVC015 09/07 Q1017 A3004
Conditions at: OIMM (MASHHAD (AFB/CIV, IR) observed 0450 UTC 22 April 2019
Temperature: 9.0°C (48°F)
Dewpoint: 7.0°C (45°F) [RH = 87%]
Pressure (altimeter): 30.03 inches Hg (1017.0 mb)
Winds: from the ESE (110 degrees) at 7 MPH (6 knots; 3.1 m/s)
Visibility: 3 miles ( 5 km)
Ceiling: 1500 feet AGL
Clouds: overcast cloud deck at 1500 feet AGL
Weather: BR  (mist)

METAR text: OIMM 220430Z 12010KT 4000 -DZ BR OVC015 09/07 Q1017 A3004
Conditions at: OIMM (MASHHAD (AFB/CIV, IR) observed 0430 UTC 22 April 2019
Temperature: 9.0°C (48°F)
Dewpoint: 7.0°C (45°F) [RH = 87%]
Pressure (altimeter): 30.03 inches Hg (1017.0 mb)
Winds: from the ESE (120 degrees) at 12 MPH (10 knots; 5.1 m/s)
Visibility: 2.49 miles (4.01 km)
Ceiling: 1500 feet AGL
Clouds: overcast cloud deck at 1500 feet AGL
Weather: -DZ BR  (light drizzle, mist)

METAR text: OIMM 220420Z 12010KT 4000 -DZ BR OVC015 09/07 Q1017 A3004
Conditions at: OIMM (MASHHAD (AFB/CIV, IR) observed 0420 UTC 22 April 2019
Temperature: 9.0°C (48°F)
Dewpoint: 7.0°C (45°F) [RH = 87%]
Pressure (altimeter): 30.03 inches Hg (1017.0 mb)
Winds: from the ESE (120 degrees) at 12 MPH (10 knots; 5.1 m/s)
Visibility: 2.49 miles (4.01 km)
Ceiling: 1500 feet AGL
Clouds: overcast cloud deck at 1500 feet AGL
Weather: -DZ BR  (light drizzle, mist)

METAR text: OIMM 220400Z 14008KT 6000 OVC015 08/06 Q1017 A3004
Conditions at: OIMM (MASHHAD (AFB/CIV, IR) observed 0400 UTC 22 April 2019
Temperature: 8.0°C (46°F)
Dewpoint: 6.0°C (43°F) [RH = 87%]
Pressure (altimeter): 30.03 inches Hg (1017.0 mb)
Winds: from the SE (140 degrees) at 9 MPH (8 knots; 4.1 m/s)
Visibility: 4 miles ( 6 km)
Ceiling: 1500 feet AGL
Clouds: overcast cloud deck at 1500 feet AGL
Weather: no significant weather observed at this time

METAR text: OIMM 220350Z 14008KT 6000 OVC015 08/06 Q1017 A3004
Conditions at: OIMM (MASHHAD (AFB/CIV, IR) observed 0350 UTC 22 April 2019
Temperature: 8.0°C (46°F)
Dewpoint: 6.0°C (43°F) [RH = 87%]
Pressure (altimeter): 30.03 inches Hg (1017.0 mb)
Winds: from the SE (140 degrees) at 9 MPH (8 knots; 4.1 m/s)
Visibility: 4 miles ( 6 km)
Ceiling: 1500 feet AGL
Clouds: overcast cloud deck at 1500 feet AGL
Weather: no significant weather observed at this time

METAR text: OIMM 220330Z 14006KT 6000 -DZ OVC012 08/07 Q1017 A3004
Conditions at: OIMM (MASHHAD (AFB/CIV, IR) observed 0330 UTC 22 April 2019
Temperature: 8.0°C (46°F)
Dewpoint: 7.0°C (45°F) [RH = 93%]
Pressure (altimeter): 30.03 inches Hg (1017.0 mb)
Winds: from the SE (140 degrees) at 7 MPH (6 knots; 3.1 m/s)
Visibility: 4 miles ( 6 km)
Ceiling: 1200 feet AGL
Clouds: overcast cloud deck at 1200 feet AGL
Weather: -DZ  (light drizzle)

METAR text: OIMM 220320Z 14006KT 6000 -DZ OVC012 08/07 Q1017 A3004
Conditions at: OIMM (MASHHAD (AFB/CIV, IR) observed 0320 UTC 22 April 2019
Temperature: 8.0°C (46°F)
Dewpoint: 7.0°C (45°F) [RH = 93%]
Pressure (altimeter): 30.03 inches Hg (1017.0 mb)
Winds: from the SE (140 degrees) at 7 MPH (6 knots; 3.1 m/s)
Visibility: 4 miles ( 6 km)
Ceiling: 1200 feet AGL
Clouds: overcast cloud deck at 1200 feet AGL
Weather: -DZ  (light drizzle)

METAR text: OIMM 220300Z 14008KT 3000 BR OVC012 08/06 Q1017 A3004
Conditions at: OIMM (MASHHAD (AFB/CIV, IR) observed 0300 UTC 22 April 2019
Temperature: 8.0°C (46°F)
Dewpoint: 6.0°C (43°F) [RH = 87%]
Pressure (altimeter): 30.03 inches Hg (1017.0 mb)
Winds: from the SE (140 degrees) at 9 MPH (8 knots; 4.1 m/s)
Visibility: 1.86 miles (2.99 km)
Ceiling: 1200 feet AGL
Clouds: overcast cloud deck at 1200 feet AGL
Weather: BR  (mist)

METAR text: OIMM 220230Z 12006KT 3000 BR OVC012 08/07 Q1017 A3004
Conditions at: OIMM (MASHHAD (AFB/CIV, IR) observed 0230 UTC 22 April 2019
Temperature: 8.0°C (46°F)
Dewpoint: 7.0°C (45°F) [RH = 93%]
Pressure (altimeter): 30.03 inches Hg (1017.0 mb)
Winds: from the ESE (120 degrees) at 7 MPH (6 knots; 3.1 m/s)
Visibility: 1.86 miles (2.99 km)
Ceiling: 1200 feet AGL
Clouds: overcast cloud deck at 1200 feet AGL
Weather: BR  (mist)

METAR text: OIMM 220200Z 15008KT 5000 -DZ BR OVC012 08/07 Q1017 A3003
Conditions at: OIMM (MASHHAD (AFB/CIV, IR) observed 0200 UTC 22 April 2019
Temperature: 8.0°C (46°F)
Dewpoint: 7.0°C (45°F) [RH = 93%]
Pressure (altimeter): 30.03 inches Hg (1017.0 mb)
Winds: from the SSE (150 degrees) at 9 MPH (8 knots; 4.1 m/s)
Visibility: 3 miles ( 5 km)
Ceiling: 1200 feet AGL
Clouds: overcast cloud deck at 1200 feet AGL
Weather: -DZ BR  (light drizzle, mist)

METAR text: OIMM 220130Z 14008KT 7000 OVC012 08/07 Q1017 A3003
Conditions at: OIMM (MASHHAD (AFB/CIV, IR) observed 0130 UTC 22 April 2019
Temperature: 8.0°C (46°F)
Dewpoint: 7.0°C (45°F) [RH = 93%]
Pressure (altimeter): 30.03 inches Hg (1017.0 mb)
Winds: from the SE (140 degrees) at 9 MPH (8 knots; 4.1 m/s)
Visibility: 4 miles ( 7 km)
Ceiling: 1200 feet AGL
Clouds: overcast cloud deck at 1200 feet AGL
Weather: no significant weather observed at this time

METAR text: OIMM 220100Z 12006KT 9999 OVC015 08/07 Q1017 A3003
Conditions at: OIMM (MASHHAD (AFB/CIV, IR) observed 0100 UTC 22 April 2019
Temperature: 8.0°C (46°F)
Dewpoint: 7.0°C (45°F) [RH = 93%]
Pressure (altimeter): 30.03 inches Hg (1017.0 mb)
Winds: from the ESE (120 degrees) at 7 MPH (6 knots; 3.1 m/s)
Visibility: 6 or more miles (10+ km)
Ceiling: 1500 feet AGL
Clouds: overcast cloud deck at 1500 feet AGL
Weather: no significant weather observed at this time

METAR text: OIMM 220030Z 12006KT 9999 BKN015 08/07 Q1017 A3003
Conditions at: OIMM (MASHHAD (AFB/CIV, IR) observed 0030 UTC 22 April 2019
Temperature: 8.0°C (46°F)
Dewpoint: 7.0°C (45°F) [RH = 93%]
Pressure (altimeter): 30.03 inches Hg (1017.0 mb)
Winds: from the ESE (120 degrees) at 7 MPH (6 knots; 3.1 m/s)
Visibility: 6 or more miles (10+ km)
Ceiling: 1500 feet AGL
Clouds: broken clouds at 1500 feet AGL
Weather: no significant weather observed at this time

METAR text: OIMM 220000Z 16006KT 9999 BKN015 08/07 Q1017 A3003
Conditions at: OIMM (MASHHAD (AFB/CIV, IR) observed 0000 UTC 22 April 2019
Temperature: 8.0°C (46°F)
Dewpoint: 7.0°C (45°F) [RH = 93%]
Pressure (altimeter): 30.03 inches Hg (1017.0 mb)
Winds: from the SSE (160 degrees) at 7 MPH (6 knots; 3.1 m/s)
Visibility: 6 or more miles (10+ km)
Ceiling: 1500 feet AGL
Clouds: broken clouds at 1500 feet AGL
Weather: no significant weather observed at this time

METAR text: OIMM 212330Z 09008KT 6000 OVC020 08/07 Q1017 A3004
Conditions at: OIMM (MASHHAD (AFB/CIV, IR) observed 2330 UTC 21 April 2019
Temperature: 8.0°C (46°F)
Dewpoint: 7.0°C (45°F) [RH = 93%]
Pressure (altimeter): 30.03 inches Hg (1017.0 mb)
Winds: from the E (90 degrees) at 9 MPH (8 knots; 4.1 m/s)
Visibility: 4 miles ( 6 km)
Ceiling: 2000 feet AGL
Clouds: overcast cloud deck at 2000 feet AGL
Weather: no significant weather observed at this time

METAR text: OIMM 212300Z 09008KT 5000 -DZ BR OVC020 08/07 Q1017 A3004
Conditions at: OIMM (MASHHAD (AFB/CIV, IR) observed 2300 UTC 21 April 2019
Temperature: 8.0°C (46°F)
Dewpoint: 7.0°C (45°F) [RH = 93%]
Pressure (altimeter): 30.03 inches Hg (1017.0 mb)
Winds: from the E (90 degrees) at 9 MPH (8 knots; 4.1 m/s)
Visibility: 3 miles ( 5 km)
Ceiling: 2000 feet AGL
Clouds: overcast cloud deck at 2000 feet AGL
Weather: -DZ BR  (light drizzle, mist)

METAR text: OIMM 212240Z 08010KT 5000 -DZ BR OVC020 08/08 Q1017 A3005
Conditions at: OIMM (MASHHAD (AFB/CIV, IR) observed 2240 UTC 21 April 2019
Temperature: 8.0°C (46°F)
Dewpoint: 8.0°C (46°F) [RH = 100%]
Pressure (altimeter): 30.03 inches Hg (1017.0 mb)
Winds: from the E (80 degrees) at 12 MPH (10 knots; 5.1 m/s)
Visibility: 3 miles ( 5 km)
Ceiling: 2000 feet AGL
Clouds: overcast cloud deck at 2000 feet AGL
Weather: -DZ BR  (light drizzle, mist)

METAR text: OIMM 212230Z 10008KT 9999 BKN030 08/07 Q1017 A3005
Conditions at: OIMM (MASHHAD (AFB/CIV, IR) observed 2230 UTC 21 April 2019
Temperature: 8.0°C (46°F)
Dewpoint: 7.0°C (45°F) [RH = 93%]
Pressure (altimeter): 30.03 inches Hg (1017.0 mb)
Winds: from the E (100 degrees) at 9 MPH (8 knots; 4.1 m/s)
Visibility: 6 or more miles (10+ km)
Ceiling: 3000 feet AGL
Clouds: broken clouds at 3000 feet AGL
Weather: no significant weather observed at this time

METAR text: OIMM 212200Z 11006KT 9999 BKN030 08/07 Q1017 A3005
Conditions at: OIMM (MASHHAD (AFB/CIV, IR) observed 2200 UTC 21 April 2019
Temperature: 8.0°C (46°F)
Dewpoint: 7.0°C (45°F) [RH = 93%]
Pressure (altimeter): 30.03 inches Hg (1017.0 mb)
Winds: from the ESE (110 degrees) at 7 MPH (6 knots; 3.1 m/s)
Visibility: 6 or more miles (10+ km)
Ceiling: 3000 feet AGL
Clouds: broken clouds at 3000 feet AGL
Weather: no significant weather observed at this time

METAR text: OIMM 212130Z 10006KT 9999 SCT030 BKN080 08/07 Q1018 A3006
Conditions at: OIMM (MASHHAD (AFB/CIV, IR) observed 2130 UTC 21 April 2019
Temperature: 8.0°C (46°F)
Dewpoint: 7.0°C (45°F) [RH = 93%]
Pressure (altimeter): 30.06 inches Hg (1018.0 mb)
Winds: from the E (100 degrees) at 7 MPH (6 knots; 3.1 m/s)
Visibility: 6 or more miles (10+ km)
Ceiling: 8000 feet AGL
Clouds: scattered clouds at 3000 feet AGL
broken clouds at 8000 feet AGL
Weather: no significant weather observed at this time

METAR text: OIMM 212100Z 12006KT 9999 SCT025 FEW030CB OVC070 08/07 Q1018 A3009
Conditions at: OIMM (MASHHAD (AFB/CIV, IR) observed 2100 UTC 21 April 2019
Temperature: 8.0°C (46°F)
Dewpoint: 7.0°C (45°F) [RH = 93%]
Pressure (altimeter): 30.06 inches Hg (1018.0 mb)
Winds: from the ESE (120 degrees) at 7 MPH (6 knots; 3.1 m/s)
Visibility: 6 or more miles (10+ km)
Ceiling: 7000 feet AGL
Clouds: scattered clouds at 2500 feet AGL
few clouds at 3000 feet AGL
overcast cloud deck at 7000 feet AGL
Weather: no significant weather observed at this time

METAR text: OIMM 212030Z 12008KT 9999 SCT025 FEW030CB OVC070 08/07 Q1019 A3009
Conditions at: OIMM (MASHHAD (AFB/CIV, IR) observed 2030 UTC 21 April 2019
Temperature: 8.0°C (46°F)
Dewpoint: 7.0°C (45°F) [RH = 93%]
Pressure (altimeter): 30.09 inches Hg (1019.0 mb)
Winds: from the ESE (120 degrees) at 9 MPH (8 knots; 4.1 m/s)
Visibility: 6 or more miles (10+ km)
Ceiling: 7000 feet AGL
Clouds: scattered clouds at 2500 feet AGL
few clouds at 3000 feet AGL
overcast cloud deck at 7000 feet AGL
Weather: no significant weather observed at this time

METAR text: OIMM 212000Z 14006KT 9999 BKN025 FEW030CB OVC070 08/07 Q1019 A3010
Conditions at: OIMM (MASHHAD (AFB/CIV, IR) observed 2000 UTC 21 April 2019
Temperature: 8.0°C (46°F)
Dewpoint: 7.0°C (45°F) [RH = 93%]
Pressure (altimeter): 30.09 inches Hg (1019.0 mb)
Winds: from the SE (140 degrees) at 7 MPH (6 knots; 3.1 m/s)
Visibility: 6 or more miles (10+ km)
Ceiling: 2500 feet AGL
Clouds: broken clouds at 2500 feet AGL
few clouds at 3000 feet AGL
overcast cloud deck at 7000 feet AGL
Weather: no significant weather observed at this time

METAR text: OIMM 211930Z 12006KT 9999 BKN025 FEW030CB OVC070 08/06 Q1019 A3010
Conditions at: OIMM (MASHHAD (AFB/CIV, IR) observed 1930 UTC 21 April 2019
Temperature: 8.0°C (46°F)
Dewpoint: 6.0°C (43°F) [RH = 87%]
Pressure (altimeter): 30.09 inches Hg (1019.0 mb)
Winds: from the ESE (120 degrees) at 7 MPH (6 knots; 3.1 m/s)
Visibility: 6 or more miles (10+ km)
Ceiling: 2500 feet AGL
Clouds: broken clouds at 2500 feet AGL
few clouds at 3000 feet AGL
overcast cloud deck at 7000 feet AGL
Weather: no significant weather observed at this time

METAR text: OIMM 211900Z 10012KT 9999 BKN025 FEW030CB OVC070 08/07 Q1019 A3011
Conditions at: OIMM (MASHHAD (AFB/CIV, IR) observed 1900 UTC 21 April 2019
Temperature: 8.0°C (46°F)
Dewpoint: 7.0°C (45°F) [RH = 93%]
Pressure (altimeter): 30.09 inches Hg (1019.0 mb)
Winds: from the E (100 degrees) at 14 MPH (12 knots; 6.2 m/s)
Visibility: 6 or more miles (10+ km)
Ceiling: 2500 feet AGL
Clouds: broken clouds at 2500 feet AGL
few clouds at 3000 feet AGL
overcast cloud deck at 7000 feet AGL
Weather: no significant weather observed at this time

METAR text: OIMM 211830Z 10008KT 9999 BKN025 FEW030CB OVC070 08/07 Q1019 A3011
Conditions at: OIMM (MASHHAD (AFB/CIV, IR) observed 1830 UTC 21 April 2019
Temperature: 8.0°C (46°F)
Dewpoint: 7.0°C (45°F) [RH = 93%]
Pressure (altimeter): 30.09 inches Hg (1019.0 mb)
Winds: from the E (100 degrees) at 9 MPH (8 knots; 4.1 m/s)
Visibility: 6 or more miles (10+ km)
Ceiling: 2500 feet AGL
Clouds: broken clouds at 2500 feet AGL
few clouds at 3000 feet AGL
overcast cloud deck at 7000 feet AGL
Weather: no significant weather observed at this time

METAR text: OIMM 211800Z 12008KT 9999 BKN025 FEW030CB OVC070 09/07 Q1019 A3011
Conditions at: OIMM (MASHHAD (AFB/CIV, IR) observed 1800 UTC 21 April 2019
Temperature: 9.0°C (48°F)
Dewpoint: 7.0°C (45°F) [RH = 87%]
Pressure (altimeter): 30.09 inches Hg (1019.0 mb)
Winds: from the ESE (120 degrees) at 9 MPH (8 knots; 4.1 m/s)
Visibility: 6 or more miles (10+ km)
Ceiling: 2500 feet AGL
Clouds: broken clouds at 2500 feet AGL
few clouds at 3000 feet AGL
overcast cloud deck at 7000 feet AGL
Weather: no significant weather observed at this time

METAR text: OIMM 211730Z 12008KT 9999 BKN020 FEW025CB OVC070 09/06 Q1019 A3011
Conditions at: OIMM (MASHHAD (AFB/CIV, IR) observed 1730 UTC 21 April 2019
Temperature: 9.0°C (48°F)
Dewpoint: 6.0°C (43°F) [RH = 81%]
Pressure (altimeter): 30.09 inches Hg (1019.0 mb)
Winds: from the ESE (120 degrees) at 9 MPH (8 knots; 4.1 m/s)
Visibility: 6 or more miles (10+ km)
Ceiling: 2000 feet AGL
Clouds: broken clouds at 2000 feet AGL
few clouds at 2500 feet AGL
overcast cloud deck at 7000 feet AGL
Weather: no significant weather observed at this time

METAR text: OIMM 211700Z 12008KT 9999 BKN020 OVC070 09/06 Q1019 A3012
Conditions at: OIMM (MASHHAD (AFB/CIV, IR) observed 1700 UTC 21 April 2019
Temperature: 9.0°C (48°F)
Dewpoint: 6.0°C (43°F) [RH = 81%]
Pressure (altimeter): 30.09 inches Hg (1019.0 mb)
Winds: from the ESE (120 degrees) at 9 MPH (8 knots; 4.1 m/s)
Visibility: 6 or more miles (10+ km)
Ceiling: 2000 feet AGL
Clouds: broken clouds at 2000 feet AGL
overcast cloud deck at 7000 feet AGL
Weather: no significant weather observed at this time

METAR text: OIMM 211630Z 12008KT 9999 BKN025 OVC070 09/06 Q1019 A3011
Conditions at: OIMM (MASHHAD (AFB/CIV, IR) observed 1630 UTC 21 April 2019
Temperature: 9.0°C (48°F)
Dewpoint: 6.0°C (43°F) [RH = 81%]
Pressure (altimeter): 30.09 inches Hg (1019.0 mb)
Winds: from the ESE (120 degrees) at 9 MPH (8 knots; 4.1 m/s)
Visibility: 6 or more miles (10+ km)
Ceiling: 2500 feet AGL
Clouds: broken clouds at 2500 feet AGL
overcast cloud deck at 7000 feet AGL
Weather: no significant weather observed at this time

METAR text: OIMM 211600Z 12006KT 9999 BKN020 OVC070 09/06 Q1019 A3010
Conditions at: OIMM (MASHHAD (AFB/CIV, IR) observed 1600 UTC 21 April 2019
Temperature: 9.0°C (48°F)
Dewpoint: 6.0°C (43°F) [RH = 81%]
Pressure (altimeter): 30.09 inches Hg (1019.0 mb)
Winds: from the ESE (120 degrees) at 7 MPH (6 knots; 3.1 m/s)
Visibility: 6 or more miles (10+ km)
Ceiling: 2000 feet AGL
Clouds: broken clouds at 2000 feet AGL
overcast cloud deck at 7000 feet AGL
Weather: no significant weather observed at this time

METAR text: OIMM 211530Z 12006KT 9999 SCT020 SCT030 OVC070 09/06 Q1019 A3010
Conditions at: OIMM (MASHHAD (AFB/CIV, IR) observed 1530 UTC 21 April 2019
Temperature: 9.0°C (48°F)
Dewpoint: 6.0°C (43°F) [RH = 81%]
Pressure (altimeter): 30.09 inches Hg (1019.0 mb)
Winds: from the ESE (120 degrees) at 7 MPH (6 knots; 3.1 m/s)
Visibility: 6 or more miles (10+ km)
Ceiling: 7000 feet AGL
Clouds: scattered clouds at 2000 feet AGL
scattered clouds at 3000 feet AGL
overcast cloud deck at 7000 feet AGL
Weather: no significant weather observed at this time

METAR text: OIMM 211500Z 11006KT 9000 -RA SCT025 OVC040 09/06 Q1018 A3008
Conditions at: OIMM (MASHHAD (AFB/CIV, IR) observed 1500 UTC 21 April 2019
Temperature: 9.0°C (48°F)
Dewpoint: 6.0°C (43°F) [RH = 81%]
Pressure (altimeter): 30.06 inches Hg (1018.0 mb)
Winds: from the ESE (110 degrees) at 7 MPH (6 knots; 3.1 m/s)
Visibility: 6 miles ( 9 km)
Ceiling: 4000 feet AGL
Clouds: scattered clouds at 2500 feet AGL
overcast cloud deck at 4000 feet AGL
Weather: -RA  (light rain)

METAR text: OIMM 211430Z 12008KT 9000 -RA SCT025 OVC040 09/07 Q1018 A3007
Conditions at: OIMM (MASHHAD (AFB/CIV, IR) observed 1430 UTC 21 April 2019
Temperature: 9.0°C (48°F)
Dewpoint: 7.0°C (45°F) [RH = 87%]
Pressure (altimeter): 30.06 inches Hg (1018.0 mb)
Winds: from the ESE (120 degrees) at 9 MPH (8 knots; 4.1 m/s)
Visibility: 6 miles ( 9 km)
Ceiling: 4000 feet AGL
Clouds: scattered clouds at 2500 feet AGL
overcast cloud deck at 4000 feet AGL
Weather: -RA  (light rain)

METAR text: OIMM 211400Z 13012KT 9999 FEW025 BKN030 10/05 Q1017 A3005
Conditions at: OIMM (MASHHAD (AFB/CIV, IR) observed 1400 UTC 21 April 2019
Temperature: 10.0°C (50°F)
Dewpoint: 5.0°C (41°F) [RH = 71%]
Pressure (altimeter): 30.03 inches Hg (1017.0 mb)
Winds: from the SE (130 degrees) at 14 MPH (12 knots; 6.2 m/s)
Visibility: 6 or more miles (10+ km)
Ceiling: 3000 feet AGL
Clouds: few clouds at 2500 feet AGL
broken clouds at 3000 feet AGL
Weather: no significant weather observed at this time

METAR text: OIMM 211330Z 12010KT 9999 FEW025 OVC080 09/06 Q1017 A3005
Conditions at: OIMM (MASHHAD (AFB/CIV, IR) observed 1330 UTC 21 April 2019
Temperature: 9.0°C (48°F)
Dewpoint: 6.0°C (43°F) [RH = 81%]
Pressure (altimeter): 30.03 inches Hg (1017.0 mb)
Winds: from the ESE (120 degrees) at 12 MPH (10 knots; 5.1 m/s)
Visibility: 6 or more miles (10+ km)
Ceiling: 8000 feet AGL
Clouds: few clouds at 2500 feet AGL
overcast cloud deck at 8000 feet AGL
Weather: no significant weather observed at this time

METAR text: OIMM 211300Z 10008KT 9999 FEW025 BKN030 OVC080 09/06 Q1017 A3005
Conditions at: OIMM (MASHHAD (AFB/CIV, IR) observed 1300 UTC 21 April 2019
Temperature: 9.0°C (48°F)
Dewpoint: 6.0°C (43°F) [RH = 81%]
Pressure (altimeter): 30.03 inches Hg (1017.0 mb)
Winds: from the E (100 degrees) at 9 MPH (8 knots; 4.1 m/s)
Visibility: 6 or more miles (10+ km)
Ceiling: 3000 feet AGL
Clouds: few clouds at 2500 feet AGL
broken clouds at 3000 feet AGL
overcast cloud deck at 8000 feet AGL
Weather: no significant weather observed at this time

METAR text: OIMM 211230Z 12006KT 9999 FEW025 BKN040 OVC080 10/06 Q1017 A3005
Conditions at: OIMM (MASHHAD (AFB/CIV, IR) observed 1230 UTC 21 April 2019
Temperature: 10.0°C (50°F)
Dewpoint: 6.0°C (43°F) [RH = 76%]
Pressure (altimeter): 30.03 inches Hg (1017.0 mb)
Winds: from the ESE (120 degrees) at 7 MPH (6 knots; 3.1 m/s)
Visibility: 6 or more miles (10+ km)
Ceiling: 4000 feet AGL
Clouds: few clouds at 2500 feet AGL
broken clouds at 4000 feet AGL
overcast cloud deck at 8000 feet AGL
Weather: no significant weather observed at this time

METAR text: OIMM 211200Z 10008KT 9999 FEW025CB BKN030 OVC080 10/08 Q1017 A3005
Conditions at: OIMM (MASHHAD (AFB/CIV, IR) observed 1200 UTC 21 April 2019
Temperature: 10.0°C (50°F)
Dewpoint: 8.0°C (46°F) [RH = 87%]
Pressure (altimeter): 30.03 inches Hg (1017.0 mb)
Winds: from the E (100 degrees) at 9 MPH (8 knots; 4.1 m/s)
Visibility: 6 or more miles (10+ km)
Ceiling: 3000 feet AGL
Clouds: few clouds at 2500 feet AGL
broken clouds at 3000 feet AGL
overcast cloud deck at 8000 feet AGL
Weather: no significant weather observed at this time

METAR text: OIMM 211130Z 11012KT 9999 FEW025CB BKN030 OVC080 10/08 Q1017 A3005
Conditions at: OIMM (MASHHAD (AFB/CIV, IR) observed 1130 UTC 21 April 2019
Temperature: 10.0°C (50°F)
Dewpoint: 8.0°C (46°F) [RH = 87%]
Pressure (altimeter): 30.03 inches Hg (1017.0 mb)
Winds: from the ESE (110 degrees) at 14 MPH (12 knots; 6.2 m/s)
Visibility: 6 or more miles (10+ km)
Ceiling: 3000 feet AGL
Clouds: few clouds at 2500 feet AGL
broken clouds at 3000 feet AGL
overcast cloud deck at 8000 feet AGL
Weather: no significant weather observed at this time

METAR text: OIMM 211100Z 09012KT 9999 FEW030CB BKN035 OVC080 10/06 Q1017 A3004
Conditions at: OIMM (MASHHAD (AFB/CIV, IR) observed 1100 UTC 21 April 2019
Temperature: 10.0°C (50°F)
Dewpoint: 6.0°C (43°F) [RH = 76%]
Pressure (altimeter): 30.03 inches Hg (1017.0 mb)
Winds: from the E (90 degrees) at 14 MPH (12 knots; 6.2 m/s)
Visibility: 6 or more miles (10+ km)
Ceiling: 3500 feet AGL
Clouds: few clouds at 3000 feet AGL
broken clouds at 3500 feet AGL
overcast cloud deck at 8000 feet AGL
Weather: no significant weather observed at this time

METAR text: OIMM 211030Z 10008KT 9999 FEW025CB BKN030 OVC080 10/06 Q1017 A3005
Conditions at: OIMM (MASHHAD (AFB/CIV, IR) observed 1030 UTC 21 April 2019
Temperature: 10.0°C (50°F)
Dewpoint: 6.0°C (43°F) [RH = 76%]
Pressure (altimeter): 30.03 inches Hg (1017.0 mb)
Winds: from the E (100 degrees) at 9 MPH (8 knots; 4.1 m/s)
Visibility: 6 or more miles (10+ km)
Ceiling: 3000 feet AGL
Clouds: few clouds at 2500 feet AGL
broken clouds at 3000 feet AGL
overcast cloud deck at 8000 feet AGL
Weather: no significant weather observed at this time

METAR text: OIMM 211000Z 10014KT 9999 FEW025CB BKN030 OVC080 11/07 Q1017 A3005
Conditions at: OIMM (MASHHAD (AFB/CIV, IR) observed 1000 UTC 21 April 2019
Temperature: 11.0°C (52°F)
Dewpoint: 7.0°C (45°F) [RH = 76%]
Pressure (altimeter): 30.03 inches Hg (1017.0 mb)
Winds: from the E (100 degrees) at 16 MPH (14 knots; 7.2 m/s)
Visibility: 6 or more miles (10+ km)
Ceiling: 3000 feet AGL
Clouds: few clouds at 2500 feet AGL
broken clouds at 3000 feet AGL
overcast cloud deck at 8000 feet AGL
Weather: no significant weather observed at this time

METAR text: OIMM 210930Z 07012KT 9999 OVC008 11/07 Q1017 A3005
Conditions at: OIMM (MASHHAD (AFB/CIV, IR) observed 0930 UTC 21 April 2019
Temperature: 11.0°C (52°F)
Dewpoint: 7.0°C (45°F) [RH = 76%]
Pressure (altimeter): 30.03 inches Hg (1017.0 mb)
Winds: from the ENE (70 degrees) at 14 MPH (12 knots; 6.2 m/s)
Visibility: 6 or more miles (10+ km)
Ceiling: 800 feet AGL
Clouds: overcast cloud deck at 800 feet AGL
Weather: no significant weather observed at this time

METAR text: OIMM 210900Z 07014KT 9999 OVC007 11/07 Q1017 A3005
Conditions at: OIMM (MASHHAD (AFB/CIV, IR) observed 0900 UTC 21 April 2019
Temperature: 11.0°C (52°F)
Dewpoint: 7.0°C (45°F) [RH = 76%]
Pressure (altimeter): 30.03 inches Hg (1017.0 mb)
Winds: from the ENE (70 degrees) at 16 MPH (14 knots; 7.2 m/s)
Visibility: 6 or more miles (10+ km)
Ceiling: 700 feet AGL
Clouds: overcast cloud deck at 700 feet AGL
Weather: no significant weather observed at this time

METAR text: OIMM 210830Z 08012KT 9999 OVC008 10/07 Q1017 A3005
Conditions at: OIMM (MASHHAD (AFB/CIV, IR) observed 0830 UTC 21 April 2019
Temperature: 10.0°C (50°F)
Dewpoint: 7.0°C (45°F) [RH = 82%]
Pressure (altimeter): 30.03 inches Hg (1017.0 mb)
Winds: from the E (80 degrees) at 14 MPH (12 knots; 6.2 m/s)
Visibility: 6 or more miles (10+ km)
Ceiling: 800 feet AGL
Clouds: overcast cloud deck at 800 feet AGL
Weather: no significant weather observed at this time

METAR text: OIMM 210800Z 08014KT 8000 OVC007 10/07 Q1017 A3005
Conditions at: OIMM (MASHHAD (AFB/CIV, IR) observed 0800 UTC 21 April 2019
Temperature: 10.0°C (50°F)
Dewpoint: 7.0°C (45°F) [RH = 82%]
Pressure (altimeter): 30.03 inches Hg (1017.0 mb)
Winds: from the E (80 degrees) at 16 MPH (14 knots; 7.2 m/s)
Visibility: 5 miles ( 8 km)
Ceiling: 700 feet AGL
Clouds: overcast cloud deck at 700 feet AGL
Weather: no significant weather observed at this time

METAR text: OIMM 210730Z 07012KT 7000 OVC008 09/07 Q1017 A3006
Conditions at: OIMM (MASHHAD (AFB/CIV, IR) observed 0730 UTC 21 April 2019
Temperature: 9.0°C (48°F)
Dewpoint: 7.0°C (45°F) [RH = 87%]
Pressure (altimeter): 30.03 inches Hg (1017.0 mb)
Winds: from the ENE (70 degrees) at 14 MPH (12 knots; 6.2 m/s)
Visibility: 4 miles ( 7 km)
Ceiling: 800 feet AGL
Clouds: overcast cloud deck at 800 feet AGL
Weather: no significant weather observed at this time

METAR text: OIMM 210700Z 07014KT 6000 OVC008 09/07 Q1017 A3006
Conditions at: OIMM (MASHHAD (AFB/CIV, IR) observed 0700 UTC 21 April 2019
Temperature: 9.0°C (48°F)
Dewpoint: 7.0°C (45°F) [RH = 87%]
Pressure (altimeter): 30.03 inches Hg (1017.0 mb)
Winds: from the ENE (70 degrees) at 16 MPH (14 knots; 7.2 m/s)
Visibility: 4 miles ( 6 km)
Ceiling: 800 feet AGL
Clouds: overcast cloud deck at 800 feet AGL
Weather: no significant weather observed at this time

METAR text: OIMM 210630Z 11012KT 4000 BR OVC007 08/08 Q1017 A3006
Conditions at: OIMM (MASHHAD (AFB/CIV, IR) observed 0630 UTC 21 April 2019
Temperature: 8.0°C (46°F)
Dewpoint: 8.0°C (46°F) [RH = 100%]
Pressure (altimeter): 30.03 inches Hg (1017.0 mb)
Winds: from the ESE (110 degrees) at 14 MPH (12 knots; 6.2 m/s)
Visibility: 2.49 miles (4.01 km)
Ceiling: 700 feet AGL
Clouds: overcast cloud deck at 700 feet AGL
Weather: BR  (mist)

METAR text: OIMM 210600Z 05010KT 3000 BR OVC007 08/07 Q1018 A3006
Conditions at: OIMM (MASHHAD (AFB/CIV, IR) observed 0600 UTC 21 April 2019
Temperature: 8.0°C (46°F)
Dewpoint: 7.0°C (45°F) [RH = 93%]
Pressure (altimeter): 30.06 inches Hg (1018.0 mb)
Winds: from the NE (50 degrees) at 12 MPH (10 knots; 5.1 m/s)
Visibility: 1.86 miles (2.99 km)
Ceiling: 700 feet AGL
Clouds: overcast cloud deck at 700 feet AGL
Weather: BR  (mist)

METAR text: OIMM 210530Z 07010KT 4000 BR BKN008 08/07 Q1017 A3005
Conditions at: OIMM (MASHHAD (AFB/CIV, IR) observed 0530 UTC 21 April 2019
Temperature: 8.0°C (46°F)
Dewpoint: 7.0°C (45°F) [RH = 93%]
Pressure (altimeter): 30.03 inches Hg (1017.0 mb)
Winds: from the ENE (70 degrees) at 12 MPH (10 knots; 5.1 m/s)
Visibility: 2.49 miles (4.01 km)
Ceiling: 800 feet AGL
Clouds: broken clouds at 800 feet AGL
Weather: BR  (mist)

METAR text: OIMM 210500Z 08014KT 9999 OVC010 09/07 Q1017 A3005
Conditions at: OIMM (MASHHAD (AFB/CIV, IR) observed 0500 UTC 21 April 2019
Temperature: 9.0°C (48°F)
Dewpoint: 7.0°C (45°F) [RH = 87%]
Pressure (altimeter): 30.03 inches Hg (1017.0 mb)
Winds: from the E (80 degrees) at 16 MPH (14 knots; 7.2 m/s)
Visibility: 6 or more miles (10+ km)
Ceiling: 1000 feet AGL
Clouds: overcast cloud deck at 1000 feet AGL
Weather: no significant weather observed at this time

METAR text: OIMM 210430Z 08016KT 9999 BKN015 09/07 Q1017 A3004
Conditions at: OIMM (MASHHAD (AFB/CIV, IR) observed 0430 UTC 21 April 2019
Temperature: 9.0°C (48°F)
Dewpoint: 7.0°C (45°F) [RH = 87%]
Pressure (altimeter): 30.03 inches Hg (1017.0 mb)
Winds: from the E (80 degrees) at 18 MPH (16 knots; 8.2 m/s)
Visibility: 6 or more miles (10+ km)
Ceiling: 1500 feet AGL
Clouds: broken clouds at 1500 feet AGL
Weather: no significant weather observed at this time

METAR text: OIMM 210400Z 08016KT 9999 OVC015 09/06 Q1017 A3004
Conditions at: OIMM (MASHHAD (AFB/CIV, IR) observed 0400 UTC 21 April 2019
Temperature: 9.0°C (48°F)
Dewpoint: 6.0°C (43°F) [RH = 81%]
Pressure (altimeter): 30.03 inches Hg (1017.0 mb)
Winds: from the E (80 degrees) at 18 MPH (16 knots; 8.2 m/s)
Visibility: 6 or more miles (10+ km)
Ceiling: 1500 feet AGL
Clouds: overcast cloud deck at 1500 feet AGL
Weather: no significant weather observed at this time

METAR text: OIMM 210330Z 10010KT 9999 OVC020 10/08 Q1016 A3003
Conditions at: OIMM (MASHHAD (AFB/CIV, IR) observed 0330 UTC 21 April 2019
Temperature: 10.0°C (50°F)
Dewpoint: 8.0°C (46°F) [RH = 87%]
Pressure (altimeter): 30.00 inches Hg (1016.0 mb)
Winds: from the E (100 degrees) at 12 MPH (10 knots; 5.1 m/s)
Visibility: 6 or more miles (10+ km)
Ceiling: 2000 feet AGL
Clouds: overcast cloud deck at 2000 feet AGL
Weather: no significant weather observed at this time

METAR text: OIMM 210300Z 07014KT 9999 FEW030CB BKN035 10/07 Q1016 A3002
Conditions at: OIMM (MASHHAD (AFB/CIV, IR) observed 0300 UTC 21 April 2019
Temperature: 10.0°C (50°F)
Dewpoint: 7.0°C (45°F) [RH = 82%]
Pressure (altimeter): 30.00 inches Hg (1016.0 mb)
Winds: from the ENE (70 degrees) at 16 MPH (14 knots; 7.2 m/s)
Visibility: 6 or more miles (10+ km)
Ceiling: 3500 feet AGL
Clouds: few clouds at 3000 feet AGL
broken clouds at 3500 feet AGL
Weather: no significant weather observed at this time

METAR text: OIMM 210230Z 07008KT 9999 BKN040 10/06 Q1016 A3001
Conditions at: OIMM (MASHHAD (AFB/CIV, IR) observed 0230 UTC 21 April 2019
Temperature: 10.0°C (50°F)
Dewpoint: 6.0°C (43°F) [RH = 76%]
Pressure (altimeter): 30.00 inches Hg (1016.0 mb)
Winds: from the ENE (70 degrees) at 9 MPH (8 knots; 4.1 m/s)
Visibility: 6 or more miles (10+ km)
Ceiling: 4000 feet AGL
Clouds: broken clouds at 4000 feet AGL
Weather: no significant weather observed at this time

Forecast for: OIMM (MASHHAD (AFB/CIV, IR)
Text: TAF OIMM 221130Z 2212/2318 12008KT 7000 BKN025
Forecast period: 1200 to 2200 UTC 22 April 2019
Forecast type: FROM: standard forecast or significant change
Winds: from the ESE (120 degrees) at 9 MPH (8 knots; 4.1 m/s)
Visibility: 4 miles (7 km)
Ceiling: 2500 feet AGL
Clouds: broken clouds at 2500 feet AGL
Weather: no significant weather forecast for this period
Text: TEMPO 2212/2215 11018KT BKN025 FEW035CB SCT040 BKN090
Forecast period: 1200 to 1500 UTC 22 April 2019
Forecast type: TEMPORARY: The following changes expected for less than half the time period
Winds: from the ESE (110 degrees) at 21 MPH (18 knots; 9.3 m/s)
Visibility: missing
Ceiling: 2500 feet AGL
Clouds: broken clouds at 2500 feet AGL
few clouds at 3500 feet AGL
scattered clouds at 4000 feet AGL
Weather: no significant weather forecast for this period
Text: TEMPO 2215/2222 3000 SHRA BR BKN015 FEW035CB SCT040 OVC090
Forecast period: 1500 to 2200 UTC 22 April 2019
Forecast type: TEMPORARY: The following changes expected for less than half the time period
Visibility: 1.86 miles (2.99 km)
Ceiling: 1500 feet AGL
Clouds: broken clouds at 1500 feet AGL
few clouds at 3500 feet AGL
scattered clouds at 4000 feet AGL
Weather: SHRA BR  (rain showers, mist)
Text: BECMG 2222/2224 2000 BR BKN015
Forecast period: 2200 UTC 22 April 2019 to 0600 UTC 23 April 2019
Forecast type: BECOMING: Conditions expected to become as follows by 0000 UTC 23 April 2019
Winds: from the ESE (120 degrees) at 9 MPH (8 knots; 4.1 m/s)
Visibility: 1.24 miles (2.00 km)
Ceiling: 1500 feet AGL
Clouds: broken clouds at 1500 feet AGL
Weather: BR  (mist)
Text: PROB40 2300/2305 0500 FG OVC010
Forecast period: 0000 to 0500 UTC 23 April 2019
Forecast type: PROBABLE: 40 percent likelihood of the following during this time
Visibility: 0.31 miles (0.50 km)
Ceiling: 1000 feet AGL
Clouds: overcast cloud deck at 1000 feet AGL
Weather: FG  (fog)
Text: BECMG 2306/2307 6000 BKN025 FEW030CB OVC090
Forecast period: 0600 to 1800 UTC 23 April 2019
Forecast type: BECOMING: Conditions expected to become as follows by 0700 UTC 23 April 2019
Winds: from the ESE (120 degrees) at 9 MPH (8 knots; 4.1 m/s)
Visibility: 4 miles (6 km)
Ceiling: 2500 feet AGL
Clouds: broken clouds at 2500 feet AGL
few clouds at 3000 feet AGL
overcast cloud deck at 9000 feet AGL
Weather: BR  (mist)
Text: TEMPO 2307/2318 3000 SHRA BR SCT030CB SCT035 OVC080
Forecast period: 0700 to 1800 UTC 23 April 2019
Forecast type: TEMPORARY: The following changes expected for less than half the time period
Visibility: 1.86 miles (2.99 km)
Ceiling: 8000 feet AGL
Clouds: scattered clouds at 3000 feet AGL
scattered clouds at 3500 feet AGL
overcast cloud deck at 8000 feet AGL
Weather: SHRA BR  (rain showers, mist)